Time;durP1;ratioP1;P1;durP2;ratioP2;P2;SDS_P1;SDS_P2;PMS_P1;PMS_P2;Temp;Humidity;BMP_temperature;BMP_pressure;BME280_temperature;BME280_humidity;BME280_pressure;Samples;Min_cycle;Max_cycle;Signal;HPM_P1;HPM_P2
2023/04/13 00:00:50;;;;;;;5.43;1.02;;;;;;;7.57;78.15;99191.66;3614096;39;20083;-70
2023/04/13 00:03:17;;;;;;;2.00;1.05;;;;;;;7.52;78.25;99180.47;3613952;39;20057;-69
2023/04/13 00:05:45;;;;;;;4.78;1.17;;;;;;;7.63;78.46;99183.16;3614211;39;20077;-69
2023/04/13 00:08:11;;;;;;;4.32;1.35;;;;;;;7.71;78.50;99176.38;3613941;39;20051;-69
2023/04/13 00:10:40;;;;;;;2.25;1.10;;;;;;;7.72;77.67;99172.75;3614088;39;20054;-69
2023/04/13 00:13:08;;;;;;;3.28;1.17;;;;;;;7.70;77.98;99166.66;3614080;39;20123;-70
2023/04/13 00:15:39;;;;;;;2.35;0.93;;;;;;;7.76;78.69;99174.22;3613613;39;20417;-70
2023/04/13 00:18:07;;;;;;;2.13;1.40;;;;;;;7.80;77.98;99167.66;3612569;39;20065;-71
2023/04/13 00:20:33;;;;;;;2.33;1.05;;;;;;;7.82;77.68;99171.91;3614952;39;20051;-71
2023/04/13 00:22:59;;;;;;;3.10;1.20;;;;;;;7.53;77.55;99112.66;3617039;39;20397;-71
2023/04/13 00:25:25;;;;;;;3.78;1.30;;;;;;;7.71;77.18;99138.94;3614607;39;20047;-70
2023/04/13 00:27:54;;;;;;;5.50;1.17;;;;;;;7.98;76.95;99176.94;3617494;39;20116;-70
2023/04/13 00:30:20;;;;;;;3.80;0.85;;;;;;;7.99;76.38;99169.75;3613958;39;20395;-69
2023/04/13 00:32:47;;;;;;;2.30;1.00;;;;;;;8.00;77.11;99176.84;3616694;39;20070;-69
2023/04/13 00:35:23;;;;;;;3.90;1.10;;;;;;;8.02;77.83;99178.41;3614206;39;20123;-72
2023/04/13 00:37:50;;;;;;;4.32;1.38;;;;;;;7.97;77.86;99179.75;3613867;39;20411;-75
2023/04/13 00:40:17;;;;;;;2.15;0.82;;;;;;;7.96;78.21;99188.72;3616039;39;20099;-71
2023/04/13 00:42:48;;;;;;;2.83;1.17;;;;;;;7.96;78.98;99173.53;3613981;39;20067;-71
2023/04/13 00:45:16;;;;;;;2.40;0.80;;;;;;;7.82;79.23;99157.69;3613812;39;20051;-70
2023/04/13 00:47:45;;;;;;;4.13;1.42;;;;;;;7.97;80.13;99183.28;3613919;39;20058;-70
2023/04/13 00:50:12;;;;;;;2.20;0.82;;;;;;;7.93;79.31;99181.81;3613906;39;20262;-70
2023/04/13 00:52:41;;;;;;;2.05;1.02;;;;;;;7.88;79.46;99179.47;3613869;39;20051;-71
2023/04/13 00:55:07;;;;;;;4.50;1.50;;;;;;;7.92;79.18;99182.75;3614158;39;20409;-71
2023/04/13 00:57:35;;;;;;;2.33;0.80;;;;;;;7.76;79.98;99163.53;3616320;39;20055;-71
2023/04/13 01:00:11;;;;;;;2.95;1.10;;;;;;;7.62;79.61;99129.81;3613823;39;21844;-71
2023/04/13 01:02:40;;;;;;;3.60;1.25;;;;;;;7.77;79.14;99154.50;3612806;39;20047;-71
2023/04/13 01:05:11;;;;;;;4.45;1.25;;;;;;;7.94;79.01;99172.81;3613822;39;20086;-70
2023/04/13 01:07:52;;;;;;;2.22;1.15;;;;;;;8.02;79.13;99186.41;3603509;39;20082;-68
2023/04/13 01:10:44;;;;;;;3.85;1.13;;;;;;;8.04;79.21;99168.44;3614118;39;20047;-68
2023/04/13 01:13:30;;;;;;;4.18;1.38;;;;;;;7.99;79.59;99169.75;3613354;39;20055;-70
2023/04/13 01:16:11;;;;;;;5.00;1.10;;;;;;;8.05;79.66;99185.34;3613887;39;20054;-68
2023/04/13 01:18:42;;;;;;;5.47;1.08;;;;;;;8.06;79.55;99177.22;3613412;39;20483;-68
2023/04/13 01:21:13;;;;;;;2.80;1.10;;;;;;;8.06;79.54;99171.84;3613020;39;20316;-68
2023/04/13 01:24:41;;;;;;;3.85;0.80;;;;;;;8.10;79.45;99184.00;3616815;39;20054;-68
2023/04/13 01:27:16;;;;;;;4.75;1.48;;;;;;;8.14;79.40;99172.09;3581071;40;20086;-69
2023/04/13 01:29:47;;;;;;;4.90;1.20;;;;;;;8.13;79.23;99182.94;3599462;39;20066;-68
2023/04/13 01:32:15;;;;;;;3.67;1.15;;;;;;;8.19;79.15;99186.97;3616070;39;20059;-67
2023/04/13 01:34:41;;;;;;;2.95;1.17;;;;;;;8.16;79.05;99184.53;3612749;39;20452;-67
2023/04/13 01:37:08;;;;;;;3.58;1.33;;;;;;;8.22;78.58;99187.56;3616414;39;20061;-67
2023/04/13 01:39:37;;;;;;;4.18;1.20;;;;;;;8.19;78.46;99185.13;3603014;39;20158;-68
2023/04/13 01:42:02;;;;;;;2.58;1.00;;;;;;;8.19;79.81;99192.31;3615419;39;20120;-69
2023/04/13 01:44:33;;;;;;;5.07;1.67;;;;;;;8.16;80.31;99205.94;3614183;39;20047;-71
2023/04/13 01:47:14;;;;;;;3.50;0.90;;;;;;;8.11;80.33;99204.44;3613654;39;20154;-70
2023/04/13 01:49:56;;;;;;;5.07;1.67;;;;;;;8.06;81.53;99206.66;3614171;39;20043;-71
2023/04/13 01:52:26;;;;;;;7.25;1.70;;;;;;;7.85;82.48;99169.00;3613166;39;20369;-68
2023/04/13 01:54:55;;;;;;;3.75;1.30;;;;;;;8.05;82.72;99207.59;3613544;39;20061;-68
2023/04/13 01:57:22;;;;;;;7.70;2.15;;;;;;;8.04;82.98;99215.75;3616130;39;20045;-69
2023/04/13 01:59:48;;;;;;;7.50;1.30;;;;;;;8.03;83.38;99212.22;3613272;39;20047;-69
2023/04/13 02:02:15;;;;;;;4.40;1.40;;;;;;;8.01;83.61;99230.22;3612863;39;20058;-71
2023/04/13 02:04:41;;;;;;;4.85;1.65;;;;;;;7.60;83.30;99167.34;3613912;39;20063;-70
2023/04/13 02:07:07;;;;;;;7.22;1.52;;;;;;;7.99;83.73;99240.22;3607238;39;20390;-70
2023/04/13 02:09:34;;;;;;;5.57;1.17;;;;;;;7.99;83.69;99240.22;3613634;39;20094;-71
2023/04/13 02:11:59;;;;;;;6.13;1.73;;;;;;;7.98;83.83;99249.19;3613455;39;20135;-70
2023/04/13 02:14:26;;;;;;;3.95;0.90;;;;;;;7.98;84.05;99265.22;3613150;39;20047;-70
2023/04/13 02:16:52;;;;;;;6.35;1.50;;;;;;;7.98;83.68;99257.22;3613736;39;20359;-69
2023/04/13 02:19:18;;;;;;;4.30;1.70;;;;;;;7.97;84.70;99252.84;3618583;39;20043;-70
2023/04/13 02:21:45;;;;;;;3.97;1.48;;;;;;;7.97;84.76;99258.19;3617082;39;20067;-70
2023/04/13 02:24:10;;;;;;;5.53;1.60;;;;;;;7.82;84.05;99238.78;3618756;39;20055;-71
2023/04/13 02:26:36;;;;;;;7.63;1.90;;;;;;;7.94;84.30;99274.47;3612737;39;20054;-70
2023/04/13 02:29:02;;;;;;;6.72;1.73;;;;;;;8.00;84.28;99278.50;3614253;39;20063;-71
2023/04/13 02:31:30;;;;;;;4.05;1.77;;;;;;;7.82;83.81;99249.50;3613227;39;20058;-71
2023/04/13 02:33:56;;;;;;;4.55;1.90;;;;;;;8.01;83.66;99275.69;3614354;39;20059;-71
2023/04/13 02:36:23;;;;;;;7.53;1.85;;;;;;;8.02;83.74;99274.72;3612924;39;20334;-70
2023/04/13 02:38:49;;;;;;;5.60;1.65;;;;;;;8.05;83.54;99279.84;3613089;39;20063;-70
2023/04/13 02:41:15;;;;;;;3.80;1.60;;;;;;;8.00;83.20;99274.00;3612816;39;20395;-69
2023/04/13 02:43:40;;;;;;;3.20;1.77;;;;;;;8.05;83.14;99279.84;3613417;39;20066;-69
2023/04/13 02:46:07;;;;;;;2.28;1.70;;;;;;;8.12;83.35;99297.16;3612876;39;20090;-69
2023/04/13 02:48:33;;;;;;;4.03;1.50;;;;;;;8.13;82.56;99298.88;3613310;39;20047;-68
2023/04/13 02:50:58;;;;;;;3.55;1.30;;;;;;;8.09;82.44;99300.06;3612851;39;20131;-68
2023/04/13 02:53:24;;;;;;;6.40;1.98;;;;;;;8.16;82.64;99304.97;3612571;39;20079;-68
2023/04/13 02:55:52;;;;;;;5.10;1.80;;;;;;;8.15;82.18;99298.75;3614305;39;20061;-68
2023/04/13 02:58:19;;;;;;;2.25;1.40;;;;;;;8.11;82.26;99303.47;3614828;39;20054;-69
2023/04/13 03:00:44;;;;;;;2.78;1.33;;;;;;;8.09;82.40;99294.72;3615248;39;20316;-69
2023/04/13 03:03:10;;;;;;;4.32;1.23;;;;;;;8.10;82.47;99299.09;3616654;39;20063;-69
2023/04/13 03:05:36;;;;;;;3.60;1.48;;;;;;;8.08;82.20;99295.66;3614306;39;20363;-70
2023/04/13 03:08:04;;;;;;;6.78;1.48;;;;;;;8.12;82.26;99329.28;3615389;39;20056;-70
2023/04/13 03:10:30;;;;;;;4.65;1.80;;;;;;;8.12;82.09;99331.97;3614475;39;20043;-70
2023/04/13 03:12:55;;;;;;;2.63;1.42;;;;;;;8.02;80.95;99338.94;3615843;39;20049;-73
2023/04/13 03:15:21;;;;;;;2.92;1.50;;;;;;;7.95;80.24;99351.09;3616165;39;20047;-70
2023/04/13 03:17:47;;;;;;;3.08;1.48;;;;;;;7.90;80.99;99359.47;3611005;39;20053;-68
2023/04/13 03:20:15;;;;;;;3.20;1.70;;;;;;;7.83;81.99;99346.66;3615796;39;20046;-68
2023/04/13 03:22:43;;;;;;;5.50;2.05;;;;;;;7.86;81.73;99354.44;3616197;39;20409;-69
2023/04/13 03:25:09;;;;;;;5.68;2.05;;;;;;;7.85;82.66;99366.13;3615253;39;20047;-69
2023/04/13 03:27:35;;;;;;;7.20;2.08;;;;;;;7.85;83.03;99361.63;3614304;39;20058;-70
2023/04/13 03:30:02;;;;;;;7.20;2.42;;;;;;;7.87;83.27;99369.56;3615704;39;20054;-71
2023/04/13 03:32:28;;;;;;;5.40;2.08;;;;;;;7.86;83.72;99370.50;3614677;39;20422;-71
2023/04/13 03:34:54;;;;;;;10.45;5.28;;;;;;;7.86;84.02;99381.19;3614220;39;20047;-71
2023/04/13 03:37:20;;;;;;;6.68;3.83;;;;;;;7.88;83.80;99381.94;3614226;39;20054;-71
2023/04/13 03:39:45;;;;;;;2.70;2.20;;;;;;;7.79;83.30;99372.78;3614634;39;20393;-71
2023/04/13 03:42:11;;;;;;;5.15;2.70;;;;;;;7.87;83.55;99390.97;3614245;39;20063;-69
2023/04/13 03:44:37;;;;;;;6.70;2.90;;;;;;;7.84;83.27;99399.19;3614495;39;20051;-70
2023/04/13 03:47:02;;;;;;;5.35;2.63;;;;;;;7.63;83.11;99350.81;3615552;39;20043;-69
2023/04/13 03:49:31;;;;;;;6.40;3.05;;;;;;;7.87;83.45;99397.16;3607690;39;20054;-69
2023/04/13 03:51:57;;;;;;;5.88;3.47;;;;;;;7.87;83.89;99396.31;3614597;39;20055;-68
2023/04/13 03:54:23;;;;;;;5.15;3.35;;;;;;;7.67;83.40;99376.34;3613915;39;20047;-68
2023/04/13 03:56:49;;;;;;;6.47;3.22;;;;;;;7.78;83.04;99388.94;3608413;39;20409;-68
2023/04/13 03:59:15;;;;;;;6.57;3.50;;;;;;;7.53;83.24;99366.66;3616340;39;20094;-68
2023/04/13 04:01:40;;;;;;;6.90;3.42;;;;;;;7.78;82.99;99419.22;3613677;39;20070;-68
2023/04/13 04:04:06;;;;;;;10.10;3.65;;;;;;;7.56;84.02;99385.16;3615768;39;20376;-68
2023/04/13 04:06:32;;;;;;;7.43;3.63;;;;;;;7.70;84.22;99410.03;3613918;39;20061;-66
2023/04/13 04:08:57;;;;;;;8.55;3.75;;;;;;;7.75;83.52;99426.63;3613930;39;20062;-69
2023/04/13 04:11:23;;;;;;;6.57;3.20;;;;;;;7.76;84.04;99431.84;3613291;39;20050;-68
2023/04/13 04:13:48;;;;;;;5.57;3.25;;;;;;;7.74;84.15;99433.78;3614074;39;20062;-69
2023/04/13 04:16:15;;;;;;;4.53;3.28;;;;;;;7.75;83.99;99440.84;3614192;39;20051;-68
2023/04/13 04:18:40;;;;;;;6.60;3.50;;;;;;;7.74;83.69;99439.16;3616863;39;20054;-69
2023/04/13 04:21:07;;;;;;;9.45;3.40;;;;;;;7.73;83.99;99457.97;3618698;39;20054;-66
2023/04/13 04:23:36;;;;;;;4.60;3.05;;;;;;;7.68;83.81;99453.81;3618962;39;20066;-69
2023/04/13 04:26:03;;;;;;;7.32;3.40;;;;;;;7.67;84.45;99449.44;3617663;39;20059;-69
2023/04/13 04:28:29;;;;;;;6.28;3.30;;;;;;;7.67;84.13;99465.47;3617872;39;20441;-67
2023/04/13 04:31:00;;;;;;;7.05;3.35;;;;;;;7.68;83.45;99461.84;3617102;39;20047;-69
2023/04/13 04:33:26;;;;;;;6.32;3.42;;;;;;;7.54;83.43;99443.22;3604256;39;20147;-69
2023/04/13 04:35:52;;;;;;;6.32;3.42;;;;;;;7.36;83.69;99425.84;3613847;39;20053;-67
2023/04/13 04:38:23;;;;;;;7.20;3.85;;;;;;;7.59;83.68;99478.53;3615361;39;20406;-67
2023/04/13 04:40:49;;;;;;;5.93;3.50;;;;;;;7.53;83.53;99476.28;3610991;39;20118;-67
2023/04/13 04:43:16;;;;;;;5.50;3.42;;;;;;;7.53;83.23;99483.47;3615908;39;20127;-66
2023/04/13 04:45:44;;;;;;;6.72;3.95;;;;;;;7.52;83.65;99487.13;3613792;39;20066;-67
2023/04/13 04:48:13;;;;;;;8.20;3.72;;;;;;;7.52;83.13;99487.13;3604066;39;20046;-67
2023/04/13 04:50:43;;;;;;;6.43;3.72;;;;;;;7.48;83.46;99490.94;3613746;39;20135;-67
2023/04/13 04:53:10;;;;;;;6.65;4.18;;;;;;;7.44;83.27;99492.97;3613600;39;20051;-68
2023/04/13 04:55:36;;;;;;;6.85;3.92;;;;;;;7.40;82.98;99494.16;3615057;39;20061;-67
2023/04/13 04:58:01;;;;;;;6.05;4.10;;;;;;;7.36;83.54;99487.34;3619436;39;20054;-67
2023/04/13 05:00:29;;;;;;;7.45;4.15;;;;;;;7.40;83.39;99504.88;3613430;39;20266;-67
2023/04/13 05:02:56;;;;;;;6.57;4.15;;;;;;;7.24;83.15;99482.84;3613179;39;20053;-67
2023/04/13 05:05:23;;;;;;;7.00;4.10;;;;;;;7.38;83.58;99504.09;3613741;39;20055;-68
2023/04/13 05:07:49;;;;;;;5.80;4.72;;;;;;;7.11;83.70;99459.63;3615253;39;20165;-67
2023/04/13 05:10:15;;;;;;;8.70;4.50;;;;;;;7.41;83.58;99507.41;3614441;39;20092;-67
2023/04/13 05:12:40;;;;;;;7.35;4.80;;;;;;;7.47;83.53;99503.47;3615517;39;20367;-67
2023/04/13 05:15:07;;;;;;;6.43;4.50;;;;;;;7.47;83.85;99511.47;3613554;39;20078;-69
2023/04/13 05:17:35;;;;;;;8.95;4.43;;;;;;;7.48;83.32;99507.84;3613905;39;20059;-67
2023/04/13 05:20:02;;;;;;;6.97;4.43;;;;;;;7.47;83.36;99506.13;3613481;39;20054;-68
2023/04/13 05:22:27;;;;;;;8.63;3.90;;;;;;;7.52;83.45;99512.03;3614542;39;20084;-67
2023/04/13 05:24:53;;;;;;;7.00;3.85;;;;;;;7.53;83.59;99513.72;3615855;39;20381;-67
2023/04/13 05:27:18;;;;;;;5.45;4.07;;;;;;;7.53;83.26;99511.06;3614496;39;20081;-67
2023/04/13 05:29:45;;;;;;;8.10;3.60;;;;;;;7.52;83.44;99504.00;3615102;39;20417;-67
2023/04/13 05:32:11;;;;;;;7.32;2.90;;;;;;;7.76;83.04;99527.28;3614214;39;20119;-68
2023/04/13 05:34:37;;;;;;;6.03;3.22;;;;;;;7.88;82.01;99526.41;3614248;39;20063;-67
2023/04/13 05:37:02;;;;;;;4.22;2.20;;;;;;;7.93;81.77;99516.25;3614068;39;20127;-68
2023/04/13 05:39:28;;;;;;;9.15;2.92;;;;;;;8.06;81.41;99538.50;3613773;39;20055;-68
2023/04/13 05:41:54;;;;;;;5.68;2.53;;;;;;;8.09;81.13;99532.91;3613583;39;20061;-67
2023/04/13 05:44:20;;;;;;;6.22;2.60;;;;;;;8.07;80.34;99547.38;3616369;39;20055;-67
2023/04/13 05:46:49;;;;;;;7.75;2.38;;;;;;;8.07;80.52;99550.88;3614253;39;20101;-67
2023/04/13 05:49:15;;;;;;;10.48;2.55;;;;;;;8.06;80.50;99554.53;3610748;39;20050;-67
2023/04/13 05:51:40;;;;;;;5.72;2.13;;;;;;;8.06;80.22;99564.41;3613341;39;20292;-67
2023/04/13 05:54:08;;;;;;;4.78;2.30;;;;;;;8.06;80.80;99557.22;3613835;39;20062;-68
2023/04/13 05:56:35;;;;;;;6.97;2.10;;;;;;;8.03;80.68;99565.47;3613726;39;20042;-67
2023/04/13 05:59:03;;;;;;;7.25;2.00;;;;;;;8.07;80.10;99569.63;3613338;39;20035;-67
2023/04/13 06:01:29;;;;;;;4.78;1.83;;;;;;;8.12;80.74;99575.50;3613102;39;20124;-68
2023/04/13 06:03:55;;;;;;;3.47;1.80;;;;;;;8.12;79.94;99586.22;3597603;39;20051;-68
2023/04/13 06:06:21;;;;;;;5.35;1.95;;;;;;;8.15;79.52;99593.19;3613791;39;20360;-68
2023/04/13 06:08:47;;;;;;;3.70;2.00;;;;;;;8.19;80.34;99594.66;3612718;39;20109;-67
2023/04/13 06:11:13;;;;;;;3.15;1.73;;;;;;;8.24;79.95;99602.34;3613347;39;20067;-67
2023/04/13 06:13:40;;;;;;;4.10;1.52;;;;;;;8.22;79.84;99598.94;3615849;39;20054;-68
2023/04/13 06:16:07;;;;;;;3.00;1.73;;;;;;;8.25;79.95;99604.09;3612980;39;20054;-66
2023/04/13 06:18:33;;;;;;;6.93;2.50;;;;;;;8.27;80.31;99610.16;3612719;39;20148;-67
2023/04/13 06:20:59;;;;;;;3.00;2.08;;;;;;;8.16;80.00;99591.34;3612927;39;20048;-67
2023/04/13 06:23:24;;;;;;;4.65;1.95;;;;;;;8.24;79.61;99605.03;3614818;39;20061;-68
2023/04/13 06:25:50;;;;;;;5.90;2.30;;;;;;;8.33;80.17;99609.72;3613010;39;20319;-67
2023/04/13 06:28:16;;;;;;;2.17;1.92;;;;;;;8.36;79.82;99621.06;3613675;39;20385;-68
2023/04/13 06:30:42;;;;;;;6.57;2.33;;;;;;;8.45;80.01;99629.44;3613025;39;20054;-67
2023/04/13 06:33:08;;;;;;;4.22;2.15;;;;;;;8.22;79.58;99580.22;3616127;39;20051;-68
2023/04/13 06:35:35;;;;;;;3.70;1.95;;;;;;;8.55;79.84;99619.78;3614108;39;20050;-67
2023/04/13 06:38:01;;;;;;;2.38;1.88;;;;;;;8.44;79.86;99598.28;3614858;39;20055;-68
2023/04/13 06:40:27;;;;;;;4.40;1.88;;;;;;;8.63;78.57;99640.63;3614900;39;20313;-67
2023/04/13 06:42:54;;;;;;;4.78;2.13;;;;;;;8.66;78.54;99640.41;3616962;39;20078;-67
2023/04/13 06:45:20;;;;;;;5.43;2.10;;;;;;;8.70;78.74;99644.59;3615417;39;20304;-67
2023/04/13 06:47:46;;;;;;;6.10;2.00;;;;;;;8.76;79.00;99642.31;3615580;39;20054;-68
2023/04/13 06:50:14;;;;;;;6.10;2.30;;;;;;;8.81;77.81;99644.66;3614608;39;20115;-67
2023/04/13 06:52:46;;;;;;;7.43;2.30;;;;;;;8.81;78.42;99650.84;3614388;39;20099;-67
2023/04/13 06:55:13;;;;;;;3.88;2.13;;;;;;;8.91;78.51;99656.44;3614625;39;20091;-67
2023/04/13 06:57:40;;;;;;;4.63;2.03;;;;;;;8.83;78.00;99654.28;3615258;39;20100;-67
2023/04/13 07:00:09;;;;;;;4.97;2.33;;;;;;;8.90;77.15;99665.41;3614343;39;20100;-68
2023/04/13 07:02:35;;;;;;;4.07;2.17;;;;;;;8.93;77.63;99670.53;3614326;39;20328;-68
2023/04/13 07:05:01;;;;;;;4.85;2.05;;;;;;;8.83;77.19;99648.09;3613715;39;20051;-68
2023/04/13 07:07:27;;;;;;;5.43;1.83;;;;;;;9.03;77.19;99670.72;3614781;39;20118;-67
2023/04/13 07:09:53;;;;;;;7.60;2.38;;;;;;;9.06;77.31;99681.22;3617143;39;20046;-68
2023/04/13 07:12:18;;;;;;;5.90;2.35;;;;;;;8.95;76.99;99662.41;3616392;39;20051;-67
2023/04/13 07:14:48;;;;;;;5.78;2.20;;;;;;;9.04;75.90;99689.38;3617955;39;20481;-68
2023/04/13 07:17:14;;;;;;;8.23;2.70;;;;;;;9.10;76.26;99690.72;3614334;39;20083;-67
2023/04/13 07:19:46;;;;;;;7.15;2.85;;;;;;;9.10;76.96;99697.94;3614459;39;20083;-68
2023/04/13 07:22:12;;;;;;;9.20;2.72;;;;;;;9.11;76.07;99705.88;3614534;39;20401;-69
2023/04/13 07:24:38;;;;;;;6.88;2.90;;;;;;;9.13;76.69;99713.78;3617281;39;20046;-68
2023/04/13 07:27:04;;;;;;;4.00;1.98;;;;;;;9.13;76.35;99719.16;3615820;39;20104;-68
2023/04/13 07:29:30;;;;;;;6.60;2.97;;;;;;;9.13;75.74;99714.63;3604537;39;20098;-68
2023/04/13 07:32:02;;;;;;;6.32;3.10;;;;;;;9.14;76.21;99721.72;3614122;39;20055;-66
2023/04/13 07:34:28;;;;;;;9.88;3.13;;;;;;;9.20;75.20;99717.75;3618059;39;20067;-68
2023/04/13 07:36:54;;;;;;;10.15;3.40;;;;;;;9.21;75.18;99732.84;3614642;39;20042;-67
2023/04/13 07:39:20;;;;;;;9.55;2.80;;;;;;;9.23;74.90;99737.16;3614958;39;20043;-68
2023/04/13 07:41:46;;;;;;;9.55;3.05;;;;;;;9.25;75.69;99732.50;3615428;39;20057;-67
2023/04/13 07:44:13;;;;;;;8.95;3.00;;;;;;;9.28;75.82;99734.09;3615719;39;20102;-68
2023/04/13 07:46:40;;;;;;;10.27;3.08;;;;;;;9.35;75.28;99740.72;3614470;39;20262;-68
2023/04/13 07:49:06;;;;;;;8.15;2.80;;;;;;;9.40;75.44;99754.66;3616096;39;20075;-67
2023/04/13 07:51:33;;;;;;;7.38;2.55;;;;;;;9.43;75.65;99754.44;3614449;39;20051;-68
2023/04/13 07:54:01;;;;;;;9.45;2.65;;;;;;;9.52;75.47;99759.13;3608765;39;20054;-68
2023/04/13 07:56:27;;;;;;;8.85;3.00;;;;;;;9.62;75.07;99759.28;3616784;39;20051;-67
2023/04/13 07:58:53;;;;;;;11.02;3.47;;;;;;;9.65;74.38;99766.25;3614259;39;20308;-67
2023/04/13 08:01:20;;;;;;;12.18;2.85;;;;;;;9.86;75.00;99769.97;3613833;39;20051;-67
2023/04/13 08:03:45;;;;;;;8.80;3.20;;;;;;;10.12;74.17;99751.06;3614147;39;20387;-67
2023/04/13 08:06:11;;;;;;;13.05;3.25;;;;;;;10.44;72.07;99767.38;3616085;39;20050;-67
2023/04/13 08:08:37;;;;;;;10.18;2.92;;;;;;;10.57;71.21;99780.69;3615338;39;20051;-67
2023/04/13 08:11:03;;;;;;;13.20;3.08;;;;;;;10.58;68.88;99782.41;3614878;39;20378;-68
2023/04/13 08:13:29;;;;;;;12.07;3.58;;;;;;;10.44;68.35;99762.84;3616523;39;20062;-67
2023/04/13 08:15:56;;;;;;;10.68;2.70;;;;;;;10.61;68.31;99787.53;3614368;39;20062;-67
2023/04/13 08:18:23;;;;;;;12.77;3.00;;;;;;;10.37;68.31;99750.00;3614217;39;20054;-67
2023/04/13 08:20:49;;;;;;;11.27;3.08;;;;;;;10.66;68.94;99794.28;3615055;39;20057;-67
2023/04/13 08:23:14;;;;;;;10.13;3.15;;;;;;;10.67;68.72;99800.50;3618960;39;20055;-67
2023/04/13 08:25:41;;;;;;;10.55;3.15;;;;;;;10.68;68.21;99807.56;3616914;39;20385;-68
2023/04/13 08:28:08;;;;;;;10.80;3.30;;;;;;;10.73;68.45;99799.16;3616788;39;20071;-67
2023/04/13 08:30:34;;;;;;;9.32;3.10;;;;;;;10.75;68.66;99803.44;3615388;39;20050;-67
2023/04/13 08:33:00;;;;;;;9.73;3.60;;;;;;;10.73;67.71;99823.34;3614966;39;20371;-67
2023/04/13 08:35:26;;;;;;;9.65;3.13;;;;;;;10.75;66.72;99822.25;3614039;39;20046;-67
2023/04/13 08:37:52;;;;;;;11.38;3.50;;;;;;;10.84;66.32;99824.19;3614776;39;20054;-69
2023/04/13 08:40:19;;;;;;;9.60;3.20;;;;;;;10.88;66.79;99828.38;3614419;39;20204;-68
2023/04/13 08:42:46;;;;;;;12.77;3.28;;;;;;;10.88;65.26;99839.13;3606754;39;20288;-68
2023/04/13 08:45:13;;;;;;;8.93;3.10;;;;;;;10.84;64.81;99821.50;3613598;39;20083;-68
2023/04/13 08:47:41;;;;;;;13.32;3.20;;;;;;;10.87;64.83;99834.72;3614097;39;20055;-68
2023/04/13 08:50:08;;;;;;;8.07;2.53;;;;;;;10.87;65.17;99845.47;3614157;39;20323;-67
2023/04/13 08:52:35;;;;;;;11.50;2.83;;;;;;;10.88;64.87;99851.72;3614329;39;20061;-68
2023/04/13 08:55:04;;;;;;;12.30;3.30;;;;;;;10.87;64.43;99856.22;3614410;39;20043;-68
2023/04/13 08:57:32;;;;;;;10.50;3.50;;;;;;;10.93;64.95;99866.50;3614220;39;20047;-68
2023/04/13 08:59:58;;;;;;;12.77;3.15;;;;;;;11.00;63.63;99871.38;3614302;39;20058;-68
2023/04/13 09:02:36;;;;;;;17.10;3.33;;;;;;;11.09;63.21;99866.13;3603818;39;20054;-68
2023/04/13 09:05:14;;;;;;;9.65;3.03;;;;;;;11.29;63.39;99869.06;3614057;39;20401;-68
2023/04/13 09:07:44;;;;;;;11.88;2.88;;;;;;;11.34;61.53;99891.94;3607670;39;20358;-68
2023/04/13 09:10:10;;;;;;;10.73;2.55;;;;;;;11.47;61.77;99885.56;3615460;39;20105;-68
2023/04/13 09:12:35;;;;;;;10.32;2.92;;;;;;;11.42;61.23;99880.59;3613890;39;20369;-68
2023/04/13 09:15:06;;;;;;;10.10;2.83;;;;;;;11.76;59.92;99905.59;3614078;39;20047;-68
2023/04/13 09:17:32;;;;;;;6.53;2.17;;;;;;;11.39;58.78;99835.94;3614802;39;20047;-69
2023/04/13 09:20:23;;;;;;;7.50;2.30;;;;;;;11.89;59.02;99904.63;3614239;39;20043;-68
2023/04/13 09:22:50;;;;;;;9.48;2.58;;;;;;;11.91;59.24;99914.28;3615560;39;20058;-68
2023/04/13 09:25:26;;;;;;;12.40;2.75;;;;;;;11.82;58.03;99918.56;3605685;39;20050;-68
2023/04/13 09:27:53;;;;;;;8.68;2.90;;;;;;;11.77;58.24;99910.03;3614287;39;20481;-69
2023/04/13 09:30:24;;;;;;;10.02;2.70;;;;;;;11.70;57.91;99908.78;3614095;39;20395;-68
2023/04/13 09:33:07;;;;;;;9.10;2.30;;;;;;;11.60;59.55;99934.75;3613471;39;20112;-68
2023/04/13 09:35:34;;;;;;;9.23;2.38;;;;;;;11.60;59.37;99935.59;3615141;39;20085;-68
2023/04/13 09:38:00;;;;;;;12.80;2.90;;;;;;;11.52;58.52;99931.81;3614242;39;20142;-68
2023/04/13 09:40:26;;;;;;;8.70;2.58;;;;;;;11.26;59.36;99913.25;3614164;39;20058;-68
2023/04/13 09:43:04;;;;;;;12.35;3.10;;;;;;;11.49;58.96;99945.53;3615475;39;20545;-69
2023/04/13 09:45:37;;;;;;;11.00;2.92;;;;;;;11.46;60.56;99949.31;3615946;39;20042;-69
2023/04/13 09:48:15;;;;;;;;;;;;;;;11.48;59.74;99960.81;3614432;39;20236;-68
2023/04/13 09:50:41;;;;;;;10.45;2.83;;;;;;;11.51;59.07;99962.38;3613666;39;19927;-68
2023/04/13 09:53:09;;;;;;;12.30;2.80;;;;;;;11.51;60.57;99957.88;3613956;39;20050;-68
2023/04/13 09:55:38;;;;;;;9.35;2.55;;;;;;;11.52;58.75;99975.75;3613625;39;20051;-68
2023/04/13 09:58:12;;;;;;;7.75;2.38;;;;;;;11.50;58.43;99977.69;3613052;39;20059;-68
2023/04/13 10:00:41;;;;;;;13.57;3.25;;;;;;;11.37;59.30;99977.81;3613509;39;20139;-68
2023/04/13 10:03:12;;;;;;;8.10;2.95;;;;;;;11.34;59.53;99993.34;3612843;39;20443;-68
2023/04/13 10:05:41;;;;;;;9.00;2.80;;;;;;;11.39;61.19;99991.16;3613194;39;20059;-70
2023/04/13 10:08:08;;;;;;;8.32;3.33;;;;;;;11.42;60.01;99995.41;3613421;39;21444;-68
2023/04/13 10:10:35;;;;;;;11.18;3.20;;;;;;;11.49;60.22;100002.03;3615342;39;20058;-68
2023/04/13 10:13:30;;;;;;;13.88;3.60;;;;;;;11.49;59.81;100002.91;3615330;39;20123;-68
2023/04/13 10:16:39;;;;;;;10.55;3.58;;;;;;;11.60;60.14;100015.50;3611137;39;20051;-67
2023/04/13 10:19:16;;;;;;;11.43;3.33;;;;;;;11.72;59.25;100006.44;3615325;39;20062;-67
2023/04/13 10:21:47;;;;;;;11.25;3.40;;;;;;;11.67;58.77;100000.59;3614666;39;20050;-68
2023/04/13 10:24:14;;;;;;;12.07;3.60;;;;;;;11.57;58.71;99978.91;3618391;39;20061;-68
2023/04/13 10:26:43;;;;;;;11.02;3.70;;;;;;;11.85;58.12;100020.66;3616430;39;20055;-68
2023/04/13 10:29:12;;;;;;;10.27;3.40;;;;;;;11.88;58.88;100029.50;3616212;39;20050;-67
2023/04/13 10:31:40;;;;;;;11.13;3.78;;;;;;;11.96;57.87;100029.75;3615072;39;20146;-67
2023/04/13 10:34:09;;;;;;;14.00;3.58;;;;;;;11.99;57.85;100026.81;3615342;39;20054;-67
2023/04/13 10:36:41;;;;;;;14.70;3.65;;;;;;;12.11;58.59;100015.00;3615916;39;20055;-68
2023/04/13 10:39:09;;;;;;;10.00;3.60;;;;;;;12.34;57.75;100026.63;3614897;39;20077;-68
2023/04/13 10:41:36;;;;;;;9.93;3.45;;;;;;;12.51;57.06;100038.72;3615017;39;20363;-68
2023/04/13 10:44:07;;;;;;;11.95;3.50;;;;;;;12.81;55.29;100043.38;3614611;39;20049;-68
2023/04/13 10:46:36;;;;;;;12.65;3.92;;;;;;;12.92;54.68;100047.91;3614980;39;20266;-68
2023/04/13 10:49:03;;;;;;;12.32;3.65;;;;;;;12.97;54.83;100040.25;3615048;39;20098;-68
2023/04/13 10:51:40;;;;;;;11.45;3.45;;;;;;;12.94;54.18;100052.19;3614632;39;20356;-67
2023/04/13 10:54:08;;;;;;;8.75;3.10;;;;;;;12.84;54.32;100063.84;3613936;39;20042;-68
2023/04/13 10:56:35;;;;;;;9.85;3.45;;;;;;;12.77;54.62;100067.06;3614518;39;20080;-68
2023/04/13 10:59:01;;;;;;;13.63;4.15;;;;;;;12.54;55.31;100035.75;3614492;39;20295;-67
2023/04/13 11:01:29;;;;;;;8.85;3.17;;;;;;;12.66;54.15;100059.03;3614196;39;20058;-67
2023/04/13 11:03:56;;;;;;;12.07;3.45;;;;;;;12.58;54.76;100069.56;3613801;39;20061;-68
2023/04/13 11:06:23;;;;;;;11.70;3.28;;;;;;;12.43;53.74;100068.13;3615340;39;20063;-67
2023/04/13 11:08:48;;;;;;;13.30;3.67;;;;;;;12.30;53.91;100070.97;3612782;39;20039;-67
2023/04/13 11:11:24;;;;;;;9.15;3.05;;;;;;;12.32;54.84;100077.94;3614298;39;20200;-68
2023/04/13 11:13:49;;;;;;;10.10;3.05;;;;;;;12.12;55.21;100059.00;3611516;39;20047;-68
2023/04/13 11:16:15;;;;;;;7.47;3.22;;;;;;;12.24;54.05;100085.81;3612808;39;20077;-68
2023/04/13 11:18:41;;;;;;;11.52;3.13;;;;;;;12.17;55.84;100081.88;3613066;39;20062;-67
2023/04/13 11:21:17;;;;;;;17.00;3.60;;;;;;;12.12;55.16;100086.78;3616881;39;20097;-68
2023/04/13 11:23:54;;;;;;;7.68;3.22;;;;;;;12.12;56.62;100096.72;3615350;39;20063;-69
2023/04/13 11:26:36;;;;;;;8.65;3.17;;;;;;;12.12;55.48;100094.88;3612252;39;20051;-69
2023/04/13 11:29:03;;;;;;;9.38;3.50;;;;;;;12.31;56.64;100081.63;3617559;39;20084;-68
2023/04/13 11:31:40;;;;;;;8.38;3.13;;;;;;;12.95;55.63;100086.25;3614111;39;20059;-69
2023/04/13 11:34:11;;;;;;;10.13;3.25;;;;;;;13.67;54.73;100088.25;3618030;39;20094;-68
2023/04/13 11:36:38;;;;;;;10.38;2.83;;;;;;;13.79;54.23;100096.28;3614334;39;20062;-69
2023/04/13 11:39:07;;;;;;;9.25;2.83;;;;;;;13.44;52.54;100062.38;3612896;39;20051;-68
2023/04/13 11:41:39;;;;;;;13.10;2.90;;;;;;;13.45;52.61;100096.50;3613581;39;20055;-68